Wetterdaten: Woche 24.11.14 - 30.11.14 (KW48)
Datum Zeit Temperatur Luftfeuchte Luftdruck Niederschlag Windrichtung Sonnenschein Solar Wind
24.11.2014 00:00 4,4 C 99 % 1021,6 hPa 0,0 l/m N 0,00 h 0 W/m 0,0 km/h (0 Bft)
24.11.2014 01:00 4,5 C 99 % 1021,4 hPa 0,0 l/m N 0,00 h 0 W/m 0,1 km/h (0 Bft)
24.11.2014 02:00 4,7 C 99 % 1021,4 hPa 0,0 l/m O-NO 0,00 h 0 W/m 1,3 km/h (1 Bft)
24.11.2014 03:00 4,6 C 99 % 1021,3 hPa 0,0 l/m O-NO 0,00 h 0 W/m 1,3 km/h (1 Bft)
24.11.2014 04:00 4,0 C 99 % 1021,4 hPa 0,0 l/m O 0,00 h 0 W/m 5,5 km/h (1 Bft)
24.11.2014 05:00 3,7 C 99 % 1021,3 hPa 0,0 l/m O-SO 0,00 h 0 W/m 3,7 km/h (1 Bft)
24.11.2014 06:00 3,8 C 99 % 1021,2 hPa 0,0 l/m SO 0,00 h 0 W/m 4,8 km/h (1 Bft)
24.11.2014 07:00 4,1 C 100 % 1021,5 hPa 0,0 l/m SO 0,00 h 6 W/m 2,3 km/h (1 Bft)
24.11.2014 08:00 4,5 C 100 % 1021,5 hPa 0,0 l/m S-SW 0,00 h 30 W/m 8,4 km/h (2 Bft)
24.11.2014 09:00 5,0 C 100 % 1021,8 hPa 0,0 l/m N 0,00 h 54 W/m 0,5 km/h (0 Bft)
24.11.2014 10:00 5,4 C 100 % 1022,5 hPa 0,0 l/m N 0,08 h 113 W/m 0,8 km/h (0 Bft)
24.11.2014 11:00 7,3 C 100 % 1022,5 hPa 0,0 l/m S-SW 1,00 h 285 W/m 3,2 km/h (1 Bft)
24.11.2014 12:00 10,4 C 93 % 1022,3 hPa 0,0 l/m S-SW 1,00 h 308 W/m 6,5 km/h (2 Bft)
24.11.2014 13:00 12,0 C 87 % 1021,9 hPa 0,0 l/m S-SW 0,83 h 237 W/m 4,8 km/h (1 Bft)
24.11.2014 14:00 12,5 C 83 % 1021,6 hPa 0,0 l/m S-SW 0,58 h 151 W/m 8,6 km/h (2 Bft)
24.11.2014 15:00 11,1 C 87 % 1022,0 hPa 0,0 l/m S-SW 0,00 h 59 W/m 1,6 km/h (1 Bft)
24.11.2014 16:00 10,6 C 87 % 1022,2 hPa 0,0 l/m S-SW 0,08 h 14 W/m 0,7 km/h (0 Bft)
24.11.2014 17:00 8,9 C 88 % 1022,5 hPa 0,0 l/m N 0,00 h 0 W/m 2,4 km/h (1 Bft)
24.11.2014 18:00 8,0 C 91 % 1022,9 hPa 0,0 l/m S-SW 0,00 h 0 W/m 3,6 km/h (1 Bft)
24.11.2014 19:00 8,2 C 96 % 1023,1 hPa 0,0 l/m O-NO 0,00 h 0 W/m 8,3 km/h (2 Bft)
24.11.2014 20:00 8,5 C 97 % 1023,0 hPa 0,2 l/m O 0,00 h 0 W/m 8,7 km/h (2 Bft)
24.11.2014 21:00 8,4 C 98 % 1023,2 hPa 0,0 l/m O 0,00 h 0 W/m 9,5 km/h (2 Bft)
24.11.2014 22:00 8,1 C 98 % 1022,9 hPa 0,0 l/m O-NO 0,00 h 0 W/m 9,0 km/h (2 Bft)
24.11.2014 23:00 7,9 C 98 % 1022,8 hPa 0,0 l/m O-NO 0,00 h 0 W/m 9,9 km/h (2 Bft)
25.11.2014 00:00 7,8 C 99 % 1022,6 hPa 0,0 l/m O-NO 0,00 h 0 W/m 10,2 km/h (2 Bft)
25.11.2014 01:00 7,5 C 99 % 1022,5 hPa 0,0 l/m NO 0,00 h 0 W/m 10,9 km/h (2 Bft)
25.11.2014 02:00 7,3 C 99 % 1022,5 hPa 0,0 l/m O-NO 0,00 h 0 W/m 12,6 km/h (3 Bft)
25.11.2014 03:00 6,9 C 99 % 1022,2 hPa 0,0 l/m O-NO 0,00 h 0 W/m 13,0 km/h (3 Bft)
25.11.2014 04:00 6,6 C 99 % 1022,0 hPa 0,0 l/m NO 0,00 h 0 W/m 12,4 km/h (3 Bft)
25.11.2014 05:00 6,4 C 99 % 1021,7 hPa 0,0 l/m NO 0,00 h 0 W/m 12,6 km/h (3 Bft)
25.11.2014 06:00 6,2 C 99 % 1021,5 hPa 0,0 l/m O-NO 0,00 h 0 W/m 10,7 km/h (2 Bft)
25.11.2014 07:00 6,2 C 99 % 1021,2 hPa 0,0 l/m NO 0,00 h 0 W/m 9,9 km/h (2 Bft)
25.11.2014 08:00 6,2 C 99 % 1021,0 hPa 0,0 l/m NO 0,00 h 12 W/m 13,6 km/h (3 Bft)
25.11.2014 09:00 6,3 C 99 % 1021,0 hPa 0,0 l/m O-NO 0,00 h 30 W/m 14,1 km/h (3 Bft)
25.11.2014 10:00 6,3 C 99 % 1021,0 hPa 0,0 l/m O-NO 0,00 h 30 W/m 14,9 km/h (3 Bft)
25.11.2014 11:00 6,3 C 99 % 1020,6 hPa 0,0 l/m O-NO 0,00 h 28 W/m 15,3 km/h (3 Bft)
25.11.2014 12:00 6,3 C 98 % 1020,0 hPa 0,0 l/m O-NO 0,00 h 38 W/m 15,2 km/h (3 Bft)
25.11.2014 13:00 6,6 C 97 % 1019,5 hPa 0,0 l/m O-NO 0,00 h 34 W/m 15,7 km/h (3 Bft)
25.11.2014 14:00 6,7 C 96 % 1019,2 hPa 0,0 l/m O-NO 0,00 h 37 W/m 15,7 km/h (3 Bft)
25.11.2014 15:00 6,7 C 95 % 1018,9 hPa 0,0 l/m O-NO 0,00 h 20 W/m 14,0 km/h (3 Bft)
25.11.2014 16:00 6,5 C 95 % 1018,8 hPa 0,0 l/m O-NO 0,00 h 9 W/m 12,2 km/h (2 Bft)
25.11.2014 17:00 6,3 C 96 % 1018,6 hPa 0,0 l/m O-NO 0,00 h 0 W/m 12,5 km/h (3 Bft)
25.11.2014 18:00 6,1 C 96 % 1018,3 hPa 0,0 l/m O-NO 0,00 h 0 W/m 15,3 km/h (3 Bft)
25.11.2014 19:00 5,8 C 96 % 1018,1 hPa 0,0 l/m O-NO 0,00 h 0 W/m 13,6 km/h (3 Bft)
25.11.2014 20:00 5,5 C 96 % 1018,0 hPa 0,0 l/m O-NO 0,00 h 0 W/m 12,8 km/h (3 Bft)
25.11.2014 21:00 5,3 C 96 % 1017,9 hPa 0,0 l/m O-NO 0,00 h 0 W/m 11,8 km/h (2 Bft)
25.11.2014 22:00 4,9 C 97 % 1017,9 hPa 0,0 l/m O-NO 0,00 h 0 W/m 12,1 km/h (2 Bft)
25.11.2014 23:00 4,5 C 97 % 1017,9 hPa 0,0 l/m O 0,00 h 0 W/m 11,0 km/h (2 Bft)
26.11.2014 00:00 4,2 C 97 % 1017,5 hPa 0,0 l/m O-NO 0,00 h 0 W/m 11,8 km/h (2 Bft)
26.11.2014 01:00 4,0 C 98 % 1017,0 hPa 0,0 l/m O-NO 0,00 h 0 W/m 7,1 km/h (2 Bft)
26.11.2014 02:00 3,8 C 98 % 1016,8 hPa 0,0 l/m O-NO 0,00 h 0 W/m 4,5 km/h (1 Bft)
26.11.2014 03:00 3,6 C 98 % 1016,4 hPa 0,0 l/m O-NO 0,00 h 0 W/m 4,7 km/h (1 Bft)
26.11.2014 04:00 3,6 C 98 % 1016,1 hPa 0,0 l/m O-NO 0,00 h 0 W/m 4,5 km/h (1 Bft)
26.11.2014 05:00 3,6 C 98 % 1015,8 hPa 0,0 l/m O-NO 0,00 h 0 W/m 3,6 km/h (1 Bft)
26.11.2014 06:00 3,7 C 99 % 1015,7 hPa 0,0 l/m O-NO 0,00 h 0 W/m 2,4 km/h (1 Bft)
26.11.2014 07:00 3,7 C 99 % 1015,6 hPa 0,0 l/m O-NO 0,00 h 0 W/m 1,5 km/h (1 Bft)
26.11.2014 08:00 3,9 C 99 % 1015,6 hPa 0,0 l/m N 0,00 h 10 W/m 0,9 km/h (0 Bft)
26.11.2014 09:00 4,2 C 99 % 1015,6 hPa 0,0 l/m O-NO 0,00 h 23 W/m 2,0 km/h (1 Bft)
26.11.2014 10:00 4,6 C 99 % 1015,7 hPa 0,0 l/m N 0,00 h 37 W/m 2,8 km/h (1 Bft)
26.11.2014 11:00 5,0 C 99 % 1015,3 hPa 0,0 l/m O-NO 0,00 h 70 W/m 4,1 km/h (1 Bft)
26.11.2014 12:00 5,4 C 99 % 1014,5 hPa 0,0 l/m O-NO 0,00 h 54 W/m 3,5 km/h (1 Bft)
26.11.2014 13:00 5,7 C 99 % 1014,0 hPa 0,0 l/m O-NO 0,00 h 46 W/m 5,6 km/h (1 Bft)
26.11.2014 14:00 5,7 C 99 % 1013,6 hPa 0,0 l/m O-NO 0,00 h 36 W/m 6,3 km/h (2 Bft)
26.11.2014 15:00 5,7 C 99 % 1013,6 hPa 0,0 l/m O-NO 0,00 h 15 W/m 6,5 km/h (2 Bft)
26.11.2014 16:00 5,5 C 99 % 1013,5 hPa 0,0 l/m NO 0,00 h 6 W/m 6,8 km/h (2 Bft)
26.11.2014 17:00 5,3 C 99 % 1013,5 hPa 0,0 l/m NO 0,00 h 0 W/m 6,5 km/h (2 Bft)
26.11.2014 18:00 5,1 C 99 % 1013,4 hPa 0,0 l/m NO 0,00 h 0 W/m 6,4 km/h (2 Bft)
26.11.2014 19:00 4,9 C 99 % 1013,1 hPa 0,0 l/m NO 0,00 h 0 W/m 4,8 km/h (1 Bft)
26.11.2014 20:00 4,8 C 99 % 1013,1 hPa 0,0 l/m NO 0,00 h 0 W/m 4,5 km/h (1 Bft)
26.11.2014 21:00 4,7 C 99 % 1013,0 hPa 0,0 l/m N-NO 0,00 h 0 W/m 7,9 km/h (2 Bft)
26.11.2014 22:00 4,4 C 99 % 1012,8 hPa 0,0 l/m N-NO 0,00 h 0 W/m 7,5 km/h (2 Bft)
26.11.2014 23:00 4,2 C 99 % 1012,5 hPa 0,0 l/m NO 0,00 h 0 W/m 4,7 km/h (1 Bft)
27.11.2014 00:00 4,2 C 99 % 1012,1 hPa 0,0 l/m NO 0,00 h 0 W/m 4,7 km/h (1 Bft)
27.11.2014 01:00 4,1 C 99 % 1011,6 hPa 0,0 l/m NO 0,00 h 0 W/m 4,9 km/h (1 Bft)
27.11.2014 02:00 4,0 C 99 % 1011,3 hPa 0,0 l/m NO 0,00 h 0 W/m 4,1 km/h (1 Bft)
27.11.2014 03:00 3,9 C 99 % 1010,9 hPa 0,0 l/m NO 0,00 h 0 W/m 4,7 km/h (1 Bft)
27.11.2014 04:00 3,8 C 99 % 1010,3 hPa 0,0 l/m NO 0,00 h 0 W/m 5,6 km/h (1 Bft)
27.11.2014 05:00 3,8 C 99 % 1009,8 hPa 0,0 l/m NO 0,00 h 0 W/m 4,7 km/h (1 Bft)
27.11.2014 06:00 3,8 C 99 % 1009,3 hPa 0,0 l/m NO 0,00 h 0 W/m 5,7 km/h (1 Bft)
27.11.2014 07:00 3,7 C 100 % 1009,0 hPa 0,0 l/m NO 0,00 h 5 W/m 8,8 km/h (2 Bft)
27.11.2014 08:00 3,7 C 100 % 1009,3 hPa 0,0 l/m NO 0,00 h 13 W/m 8,0 km/h (2 Bft)
27.11.2014 09:00 3,7 C 100 % 1009,2 hPa 0,0 l/m O-NO 0,00 h 30 W/m 8,0 km/h (2 Bft)
27.11.2014 10:00 3,9 C 100 % 1009,0 hPa 0,0 l/m NO 0,00 h 45 W/m 7,0 km/h (2 Bft)
27.11.2014 11:00 4,1 C 100 % 1008,6 hPa 0,0 l/m NO 0,00 h 54 W/m 9,7 km/h (2 Bft)
27.11.2014 12:00 4,2 C 100 % 1008,2 hPa 0,0 l/m NO 0,00 h 35 W/m 8,3 km/h (2 Bft)
27.11.2014 13:00 4,3 C 100 % 1007,9 hPa 0,0 l/m NO 0,00 h 28 W/m 4,9 km/h (1 Bft)
27.11.2014 14:00 4,2 C 100 % 1007,9 hPa 0,0 l/m NO 0,00 h 18 W/m 3,9 km/h (1 Bft)
27.11.2014 15:00 4,2 C 100 % 1008,0 hPa 0,0 l/m NO 0,00 h 22 W/m 3,3 km/h (1 Bft)
27.11.2014 16:00 4,2 C 100 % 1008,1 hPa 0,0 l/m NO 0,00 h 8 W/m 2,9 km/h (1 Bft)
27.11.2014 17:00 4,2 C 100 % 1008,4 hPa 0,0 l/m NO 0,00 h 0 W/m 3,2 km/h (1 Bft)
27.11.2014 18:00 4,1 C 100 % 1008,4 hPa 0,0 l/m NO 0,00 h 0 W/m 4,1 km/h (1 Bft)
27.11.2014 19:00 3,9 C 100 % 1008,7 hPa 0,0 l/m NO 0,00 h 0 W/m 4,7 km/h (1 Bft)
27.11.2014 20:00 3,7 C 100 % 1009,0 hPa 0,0 l/m NO 0,00 h 0 W/m 4,1 km/h (1 Bft)
27.11.2014 21:00 3,6 C 100 % 1009,5 hPa 0,0 l/m NO 0,00 h 0 W/m 3,6 km/h (1 Bft)
27.11.2014 22:00 3,4 C 100 % 1009,3 hPa 0,0 l/m NO 0,00 h 0 W/m 4,0 km/h (1 Bft)
27.11.2014 23:00 3,2 C 100 % 1009,3 hPa 0,0 l/m NO 0,00 h 0 W/m 5,1 km/h (1 Bft)
28.11.2014 00:00 2,9 C 100 % 1009,0 hPa 0,0 l/m NO 0,00 h 0 W/m 6,7 km/h (2 Bft)
28.11.2014 01:00 2,7 C 100 % 1009,0 hPa 0,0 l/m O-NO 0,00 h 0 W/m 6,8 km/h (2 Bft)
28.11.2014 02:00 2,6 C 100 % 1009,2 hPa 0,0 l/m O-NO 0,00 h 0 W/m 6,8 km/h (2 Bft)
28.11.2014 03:00 2,7 C 100 % 1009,1 hPa 0,2 l/m O-NO 0,00 h 0 W/m 9,8 km/h (2 Bft)
28.11.2014 04:00 2,7 C 100 % 1008,6 hPa 0,0 l/m O-NO 0,00 h 0 W/m 10,6 km/h (2 Bft)
28.11.2014 05:00 2,5 C 100 % 1008,4 hPa 0,0 l/m NO 0,00 h 0 W/m 13,4 km/h (3 Bft)
28.11.2014 06:00 2,6 C 100 % 1008,6 hPa 0,0 l/m NO 0,00 h 0 W/m 11,5 km/h (2 Bft)
28.11.2014 07:00 2,6 C 100 % 1008,9 hPa 0,0 l/m NO 0,00 h 0 W/m 10,3 km/h (2 Bft)
28.11.2014 08:00 2,5 C 100 % 1009,2 hPa 0,0 l/m NO 0,00 h 9 W/m 13,4 km/h (3 Bft)
28.11.2014 09:00 2,3 C 100 % 1009,5 hPa 0,0 l/m O-NO 0,00 h 26 W/m 13,3 km/h (3 Bft)
28.11.2014 10:00 2,4 C 100 % 1009,9 hPa 0,0 l/m O-NO 0,00 h 48 W/m 12,9 km/h (3 Bft)
28.11.2014 11:00 2,5 C 100 % 1009,5 hPa 0,0 l/m O-NO 0,00 h 57 W/m 14,0 km/h (3 Bft)
28.11.2014 12:00 2,4 C 100 % 1009,0 hPa 0,0 l/m O-NO 0,00 h 55 W/m 15,4 km/h (3 Bft)
28.11.2014 13:00 2,6 C 100 % 1008,5 hPa 0,0 l/m O-NO 0,00 h 46 W/m 15,7 km/h (3 Bft)
28.11.2014 14:00 2,4 C 100 % 1008,2 hPa 0,0 l/m O-NO 0,00 h 30 W/m 16,5 km/h (3 Bft)
28.11.2014 15:00 2,0 C 100 % 1008,4 hPa 0,0 l/m O-NO 0,00 h 16 W/m 16,5 km/h (3 Bft)
28.11.2014 16:00 1,8 C 100 % 1008,8 hPa 0,0 l/m NO 0,00 h 6 W/m 12,8 km/h (3 Bft)
28.11.2014 17:00 1,6 C 100 % 1009,4 hPa 0,0 l/m NO 0,00 h 0 W/m 13,8 km/h (3 Bft)
28.11.2014 18:00 1,3 C 100 % 1009,7 hPa 0,0 l/m NO 0,00 h 0 W/m 14,6 km/h (3 Bft)
28.11.2014 19:00 1,3 C 100 % 1010,1 hPa 0,0 l/m O-NO 0,00 h 0 W/m 15,6 km/h (3 Bft)
28.11.2014 20:00 1,3 C 100 % 1010,6 hPa 0,0 l/m O-NO 0,00 h 0 W/m 16,0 km/h (3 Bft)
28.11.2014 21:00 1,2 C 100 % 1011,0 hPa 0,0 l/m O-NO 0,00 h 0 W/m 13,8 km/h (3 Bft)
28.11.2014 22:00 1,2 C 100 % 1011,3 hPa 0,0 l/m O-NO 0,00 h 0 W/m 14,4 km/h (3 Bft)
28.11.2014 23:00 1,0 C 99 % 1011,5 hPa 0,0 l/m NO 0,00 h 0 W/m 14,5 km/h (3 Bft)
29.11.2014 00:00 1,0 C 100 % 1011,5 hPa 0,0 l/m O-NO 0,00 h 0 W/m 10,7 km/h (2 Bft)
29.11.2014 01:00 0,9 C 100 % 1011,7 hPa 0,0 l/m O-NO 0,00 h 0 W/m 14,6 km/h (3 Bft)
29.11.2014 02:00 1,0 C 100 % 1011,9 hPa 0,0 l/m O-NO 0,00 h 0 W/m 10,9 km/h (2 Bft)
29.11.2014 03:00 0,9 C 100 % 1012,0 hPa 0,0 l/m NO 0,00 h 0 W/m 10,2 km/h (2 Bft)
29.11.2014 04:00 0,8 C 100 % 1012,0 hPa 0,0 l/m NO 0,00 h 0 W/m 10,3 km/h (2 Bft)
29.11.2014 05:00 0,7 C 100 % 1012,4 hPa 0,0 l/m O-NO 0,00 h 0 W/m 11,7 km/h (2 Bft)
29.11.2014 06:00 0,6 C 100 % 1012,6 hPa 0,0 l/m O-NO 0,00 h 0 W/m 10,6 km/h (2 Bft)
29.11.2014 07:00 0,6 C 100 % 1013,0 hPa 0,0 l/m O 0,00 h 0 W/m 9,9 km/h (2 Bft)
29.11.2014 08:00 0,6 C 100 % 1013,4 hPa 0,0 l/m O-NO 0,00 h 11 W/m 9,7 km/h (2 Bft)
29.11.2014 09:00 0,6 C 100 % 1013,8 hPa 0,0 l/m O-NO 0,00 h 30 W/m 12,1 km/h (2 Bft)
29.11.2014 10:00 0,8 C 100 % 1014,1 hPa 0,0 l/m O-NO 0,00 h 44 W/m 11,0 km/h (2 Bft)
29.11.2014 11:00 1,2 C 100 % 1013,9 hPa 0,0 l/m NO 0,00 h 47 W/m 8,7 km/h (2 Bft)
29.11.2014 12:00 1,3 C 100 % 1013,3 hPa 0,0 l/m O-NO 0,00 h 51 W/m 11,3 km/h (2 Bft)
29.11.2014 13:00 1,4 C 100 % 1012,9 hPa 0,0 l/m NO 0,00 h 45 W/m 11,4 km/h (2 Bft)
29.11.2014 14:00 1,4 C 100 % 1012,6 hPa 0,0 l/m NO 0,00 h 28 W/m 10,9 km/h (2 Bft)
29.11.2014 15:00 1,3 C 100 % 1012,8 hPa 0,0 l/m O-NO 0,00 h 10 W/m 11,6 km/h (2 Bft)
29.11.2014 16:00 1,3 C 100 % 1013,2 hPa 0,0 l/m O-NO 0,00 h 0 W/m 11,8 km/h (2 Bft)
29.11.2014 17:00 1,2 C 100 % 1013,4 hPa 0,0 l/m O-NO 0,00 h 0 W/m 12,5 km/h (3 Bft)
29.11.2014 18:00 1,1 C 100 % 1013,3 hPa 0,0 l/m O-NO 0,00 h 0 W/m 12,8 km/h (3 Bft)
29.11.2014 19:00 0,9 C 100 % 1013,4 hPa 0,0 l/m O-NO 0,00 h 0 W/m 13,6 km/h (3 Bft)
29.11.2014 20:00 0,9 C 100 % 1013,5 hPa 0,0 l/m NO 0,00 h 0 W/m 9,8 km/h (2 Bft)
29.11.2014 21:00 0,8 C 100 % 1013,6 hPa 0,0 l/m O-NO 0,00 h 0 W/m 14,4 km/h (3 Bft)
29.11.2014 22:00 0,8 C 100 % 1013,6 hPa 0,0 l/m O-NO 0,00 h 0 W/m 11,6 km/h (2 Bft)
29.11.2014 23:00 0,8 C 100 % 1013,5 hPa 0,0 l/m O 0,00 h 0 W/m 10,3 km/h (2 Bft)
30.11.2014 00:00 0,8 C 100 % 1013,3 hPa 0,0 l/m O-NO 0,00 h 0 W/m 10,1 km/h (2 Bft)
30.11.2014 01:00 0,7 C 100 % 1013,1 hPa 0,0 l/m NO 0,00 h 0 W/m 8,3 km/h (2 Bft)
30.11.2014 02:00 0,5 C 100 % 1012,8 hPa 0,0 l/m NO 0,00 h 0 W/m 12,6 km/h (3 Bft)
30.11.2014 03:00 0,3 C 100 % 1012,6 hPa 0,0 l/m O-NO 0,00 h 0 W/m 11,2 km/h (2 Bft)
30.11.2014 04:00 0,3 C 100 % 1012,2 hPa 0,0 l/m NO 0,00 h 0 W/m 9,3 km/h (2 Bft)
30.11.2014 05:00 0,3 C 100 % 1012,5 hPa 0,0 l/m O-NO 0,00 h 0 W/m 9,0 km/h (2 Bft)
30.11.2014 06:00 0,3 C 100 % 1012,8 hPa 0,0 l/m O-NO 0,00 h 0 W/m 7,3 km/h (2 Bft)
30.11.2014 07:00 0,3 C 100 % 1012,6 hPa 0,0 l/m O 0,00 h 0 W/m 7,2 km/h (2 Bft)
30.11.2014 08:00 0,3 C 100 % 1012,8 hPa 0,0 l/m O 0,00 h 10 W/m 3,6 km/h (1 Bft)
30.11.2014 09:00 0,4 C 100 % 1012,9 hPa 0,0 l/m O-NO 0,00 h 21 W/m 4,4 km/h (1 Bft)
30.11.2014 10:00 0,5 C 100 % 1013,0 hPa 0,0 l/m O-NO 0,00 h 41 W/m 6,3 km/h (2 Bft)
30.11.2014 11:00 0,8 C 100 % 1012,6 hPa 0,0 l/m NO 0,00 h 54 W/m 7,2 km/h (2 Bft)
30.11.2014 12:00 1,2 C 100 % 1011,8 hPa 0,0 l/m O-SO 0,00 h 61 W/m 7,4 km/h (2 Bft)
30.11.2014 13:00 1,4 C 100 % 1011,0 hPa 0,0 l/m O-NO 0,00 h 46 W/m 6,7 km/h (2 Bft)
30.11.2014 14:00 1,4 C 100 % 1010,3 hPa 0,0 l/m NO 0,00 h 36 W/m 5,9 km/h (2 Bft)
30.11.2014 15:00 1,6 C 100 % 1010,1 hPa 0,0 l/m O-NO 0,00 h 22 W/m 6,4 km/h (2 Bft)
30.11.2014 16:00 1,4 C 100 % 1009,9 hPa 0,0 l/m NO 0,00 h 5 W/m 7,4 km/h (2 Bft)
30.11.2014 17:00 1,3 C 100 % 1009,8 hPa 0,0 l/m O 0,00 h 0 W/m 7,6 km/h (2 Bft)
30.11.2014 18:00 1,2 C 100 % 1009,6 hPa 0,0 l/m O 0,00 h 0 W/m 5,8 km/h (1 Bft)
30.11.2014 19:00 1,2 C 100 % 1009,0 hPa 0,0 l/m O-NO 0,00 h 0 W/m 7,1 km/h (2 Bft)
30.11.2014 20:00 1,1 C 100 % 1008,4 hPa 0,0 l/m NO 0,00 h 0 W/m 10,1 km/h (2 Bft)
30.11.2014 21:00 0,9 C 100 % 1008,3 hPa 0,0 l/m O-NO 0,00 h 0 W/m 9,0 km/h (2 Bft)
30.11.2014 22:00 0,9 C 100 % 1007,7 hPa 0,0 l/m O-NO 0,00 h 0 W/m 10,6 km/h (2 Bft)
30.11.2014 23:00 0,9 C 100 % 1007,1 hPa 0,0 l/m O-NO 0,00 h 0 W/m 10,9 km/h (2 Bft)
Min-Datum _ 30.11.14 24.11.14 30.11.14 - - - - 24.11.14
_ Min-Zeit 08:05 14:30 23:55 - - - - 00:00
Minimum _ 0,2 C 80 % 1006,8 hPa - - - - 0,0 km/h (0 Bft)
Max-Datum _ 24.11.14 24.11.14 24.11.14 24.11.14 - 24.11.14 24.11.14 25.11.14
_ Max-Zeit 14:20 02:10 19:30 20:40 - 10:35 14:00 10:55
Maximum _ 12,9 C 100 % 1023,3 hPa 0,2 l/m - 0,08 h 323 W/m 22,5 km/h
O-NO (4 Bft)
Durchschnitt _ 3,7 C 99 % 1014,2 hPa #0,4 l/m O-NO #3:35 h 45 W/m 8,6 km/h (2 Bft)